sensor_id;sensor_type;location;lat;lon;timestamp;P1;durP1;ratioP1;P2;durP2;ratioP2
69573;SDS011;62840;52.366;5.980;2023-11-21T00:01:41;17.97;;;6.47;;
69573;SDS011;62840;52.366;5.980;2023-11-21T00:04:09;15.02;;;6.18;;
69573;SDS011;62840;52.366;5.980;2023-11-21T00:06:35;16.52;;;6.35;;
69573;SDS011;62840;52.366;5.980;2023-11-21T00:09:01;15.87;;;6.50;;
69573;SDS011;62840;52.366;5.980;2023-11-21T00:11:26;18.42;;;6.50;;
69573;SDS011;62840;52.366;5.980;2023-11-21T00:13:52;14.93;;;5.50;;
69573;SDS011;62840;52.366;5.980;2023-11-21T00:16:18;13.88;;;5.50;;
69573;SDS011;62840;52.366;5.980;2023-11-21T00:18:44;13.23;;;5.50;;
69573;SDS011;62840;52.366;5.980;2023-11-21T00:21:12;15.48;;;5.82;;
69573;SDS011;62840;52.366;5.980;2023-11-21T00:23:38;15.93;;;6.03;;
69573;SDS011;62840;52.366;5.980;2023-11-21T00:26:04;12.57;;;5.33;;
69573;SDS011;62840;52.366;5.980;2023-11-21T00:28:31;14.48;;;5.95;;
69573;SDS011;62840;52.366;5.980;2023-11-21T00:30:56;13.60;;;5.60;;
69573;SDS011;62840;52.366;5.980;2023-11-21T00:33:22;14.30;;;5.50;;
69573;SDS011;62840;52.366;5.980;2023-11-21T00:35:48;14.68;;;5.78;;
69573;SDS011;62840;52.366;5.980;2023-11-21T00:38:16;14.50;;;6.10;;
69573;SDS011;62840;52.366;5.980;2023-11-21T00:40:42;17.10;;;6.05;;
69573;SDS011;62840;52.366;5.980;2023-11-21T00:43:08;16.08;;;5.30;;
69573;SDS011;62840;52.366;5.980;2023-11-21T00:45:33;14.87;;;5.97;;
69573;SDS011;62840;52.366;5.980;2023-11-21T00:48:00;13.50;;;4.88;;
69573;SDS011;62840;52.366;5.980;2023-11-21T00:50:26;14.70;;;6.30;;
69573;SDS011;62840;52.366;5.980;2023-11-21T00:52:51;12.30;;;5.15;;
69573;SDS011;62840;52.366;5.980;2023-11-21T00:55:20;17.70;;;5.82;;
69573;SDS011;62840;52.366;5.980;2023-11-21T00:57:46;15.93;;;5.53;;
69573;SDS011;62840;52.366;5.980;2023-11-21T01:00:12;13.75;;;5.65;;
69573;SDS011;62840;52.366;5.980;2023-11-21T01:02:39;14.38;;;5.88;;
69573;SDS011;62840;52.366;5.980;2023-11-21T01:05:05;14.43;;;5.57;;
69573;SDS011;62840;52.366;5.980;2023-11-21T01:07:32;12.93;;;5.32;;
69573;SDS011;62840;52.366;5.980;2023-11-21T01:09:58;12.13;;;5.07;;
69573;SDS011;62840;52.366;5.980;2023-11-21T01:12:26;13.83;;;5.60;;
69573;SDS011;62840;52.366;5.980;2023-11-21T01:14:52;14.73;;;5.35;;
69573;SDS011;62840;52.366;5.980;2023-11-21T01:17:17;18.17;;;6.43;;
69573;SDS011;62840;52.366;5.980;2023-11-21T01:19:43;13.60;;;5.03;;
69573;SDS011;62840;52.366;5.980;2023-11-21T01:22:09;15.55;;;5.47;;
69573;SDS011;62840;52.366;5.980;2023-11-21T01:24:35;12.63;;;4.72;;
69573;SDS011;62840;52.366;5.980;2023-11-21T01:27:01;12.93;;;5.00;;
69573;SDS011;62840;52.366;5.980;2023-11-21T01:29:29;14.15;;;5.60;;
69573;SDS011;62840;52.366;5.980;2023-11-21T01:31:55;15.33;;;5.93;;
69573;SDS011;62840;52.366;5.980;2023-11-21T01:34:21;13.68;;;5.70;;
69573;SDS011;62840;52.366;5.980;2023-11-21T01:36:47;12.82;;;5.55;;
69573;SDS011;62840;52.366;5.980;2023-11-21T01:39:13;16.20;;;5.80;;
69573;SDS011;62840;52.366;5.980;2023-11-21T01:41:38;14.40;;;5.28;;
69573;SDS011;62840;52.366;5.980;2023-11-21T01:44:04;14.13;;;5.32;;
69573;SDS011;62840;52.366;5.980;2023-11-21T01:46:33;13.90;;;5.53;;
69573;SDS011;62840;52.366;5.980;2023-11-21T01:48:59;12.50;;;5.20;;
69573;SDS011;62840;52.366;5.980;2023-11-21T01:51:25;15.18;;;5.57;;
69573;SDS011;62840;52.366;5.980;2023-11-21T01:53:51;14.63;;;5.40;;
69573;SDS011;62840;52.366;5.980;2023-11-21T01:56:17;13.07;;;5.20;;
69573;SDS011;62840;52.366;5.980;2023-11-21T01:58:43;14.88;;;5.25;;
69573;SDS011;62840;52.366;5.980;2023-11-21T02:01:09;13.77;;;5.43;;
69573;SDS011;62840;52.366;5.980;2023-11-21T02:03:38;13.77;;;5.80;;
69573;SDS011;62840;52.366;5.980;2023-11-21T02:06:04;14.00;;;5.57;;
69573;SDS011;62840;52.366;5.980;2023-11-21T02:08:31;13.27;;;5.57;;
69573;SDS011;62840;52.366;5.980;2023-11-21T02:10:57;13.27;;;5.22;;
69573;SDS011;62840;52.366;5.980;2023-11-21T02:13:22;13.33;;;4.93;;
69573;SDS011;62840;52.366;5.980;2023-11-21T02:15:48;13.02;;;6.10;;
69573;SDS011;62840;52.366;5.980;2023-11-21T02:18:14;12.13;;;6.00;;
69573;SDS011;62840;52.366;5.980;2023-11-21T02:20:42;14.65;;;5.47;;
69573;SDS011;62840;52.366;5.980;2023-11-21T02:23:11;12.45;;;5.38;;
69573;SDS011;62840;52.366;5.980;2023-11-21T02:25:37;13.10;;;5.00;;
69573;SDS011;62840;52.366;5.980;2023-11-21T02:28:03;13.50;;;5.10;;
69573;SDS011;62840;52.366;5.980;2023-11-21T02:30:29;12.65;;;5.40;;
69573;SDS011;62840;52.366;5.980;2023-11-21T02:32:56;14.15;;;4.80;;
69573;SDS011;62840;52.366;5.980;2023-11-21T02:35:21;13.67;;;5.00;;
69573;SDS011;62840;52.366;5.980;2023-11-21T02:37:47;12.98;;;5.30;;
69573;SDS011;62840;52.366;5.980;2023-11-21T02:40:17;15.82;;;5.25;;
69573;SDS011;62840;52.366;5.980;2023-11-21T02:42:43;13.35;;;5.07;;
69573;SDS011;62840;52.366;5.980;2023-11-21T02:45:09;12.37;;;5.07;;
69573;SDS011;62840;52.366;5.980;2023-11-21T02:47:35;14.95;;;5.90;;
69573;SDS011;62840;52.366;5.980;2023-11-21T02:50:01;13.85;;;4.70;;
69573;SDS011;62840;52.366;5.980;2023-11-21T02:52:27;13.23;;;4.97;;
69573;SDS011;62840;52.366;5.980;2023-11-21T02:54:53;12.15;;;4.97;;
69573;SDS011;62840;52.366;5.980;2023-11-21T02:57:21;12.67;;;5.07;;
69573;SDS011;62840;52.366;5.980;2023-11-21T02:59:47;12.80;;;4.72;;
69573;SDS011;62840;52.366;5.980;2023-11-21T03:02:12;14.38;;;5.38;;
69573;SDS011;62840;52.366;5.980;2023-11-21T03:04:38;10.70;;;4.53;;
69573;SDS011;62840;52.366;5.980;2023-11-21T03:07:04;14.70;;;4.93;;
69573;SDS011;62840;52.366;5.980;2023-11-21T03:09:30;12.37;;;4.67;;
69573;SDS011;62840;52.366;5.980;2023-11-21T03:11:56;11.65;;;4.45;;
69573;SDS011;62840;52.366;5.980;2023-11-21T03:14:24;13.13;;;4.50;;
69573;SDS011;62840;52.366;5.980;2023-11-21T03:16:50;11.95;;;4.30;;
69573;SDS011;62840;52.366;5.980;2023-11-21T03:19:15;10.60;;;4.40;;
69573;SDS011;62840;52.366;5.980;2023-11-21T03:21:41;12.43;;;4.70;;
69573;SDS011;62840;52.366;5.980;2023-11-21T03:24:07;14.35;;;4.90;;
69573;SDS011;62840;52.366;5.980;2023-11-21T03:26:33;11.80;;;4.65;;
69573;SDS011;62840;52.366;5.980;2023-11-21T03:28:59;14.27;;;5.10;;
69573;SDS011;62840;52.366;5.980;2023-11-21T03:31:28;11.23;;;4.65;;
69573;SDS011;62840;52.366;5.980;2023-11-21T03:33:53;11.57;;;4.30;;
69573;SDS011;62840;52.366;5.980;2023-11-21T03:36:19;10.13;;;4.35;;
69573;SDS011;62840;52.366;5.980;2023-11-21T03:38:45;11.80;;;4.75;;
69573;SDS011;62840;52.366;5.980;2023-11-21T03:41:13;9.67;;;4.20;;
69573;SDS011;62840;52.366;5.980;2023-11-21T03:43:39;12.20;;;4.95;;
69573;SDS011;62840;52.366;5.980;2023-11-21T03:46:05;11.20;;;4.60;;
69573;SDS011;62840;52.366;5.980;2023-11-21T03:48:34;10.05;;;4.40;;
69573;SDS011;62840;52.366;5.980;2023-11-21T03:50:59;13.17;;;4.53;;
69573;SDS011;62840;52.366;5.980;2023-11-21T03:53:25;11.07;;;4.85;;
69573;SDS011;62840;52.366;5.980;2023-11-21T03:55:51;13.10;;;4.33;;
69573;SDS011;62840;52.366;5.980;2023-11-21T03:58:17;9.93;;;3.83;;
69573;SDS011;62840;52.366;5.980;2023-11-21T04:00:43;11.50;;;3.95;;
69573;SDS011;62840;52.366;5.980;2023-11-21T04:03:08;10.83;;;4.33;;
69573;SDS011;62840;52.366;5.980;2023-11-21T04:05:37;12.32;;;4.68;;
69573;SDS011;62840;52.366;5.980;2023-11-21T04:08:03;11.35;;;4.28;;
69573;SDS011;62840;52.366;5.980;2023-11-21T04:10:29;14.30;;;4.80;;
69573;SDS011;62840;52.366;5.980;2023-11-21T04:12:55;11.32;;;4.30;;
69573;SDS011;62840;52.366;5.980;2023-11-21T04:15:21;11.43;;;4.13;;
69573;SDS011;62840;52.366;5.980;2023-11-21T04:17:47;12.40;;;5.13;;
69573;SDS011;62840;52.366;5.980;2023-11-21T04:20:12;11.13;;;4.53;;
69573;SDS011;62840;52.366;5.980;2023-11-21T04:22:41;12.17;;;4.03;;
69573;SDS011;62840;52.366;5.980;2023-11-21T04:25:09;12.65;;;4.38;;
69573;SDS011;62840;52.366;5.980;2023-11-21T04:27:36;10.60;;;4.05;;
69573;SDS011;62840;52.366;5.980;2023-11-21T04:30:03;11.98;;;4.88;;
69573;SDS011;62840;52.366;5.980;2023-11-21T04:32:32;10.43;;;4.00;;
69573;SDS011;62840;52.366;5.980;2023-11-21T04:34:58;11.75;;;3.67;;
69573;SDS011;62840;52.366;5.980;2023-11-21T04:37:24;10.00;;;3.65;;
69573;SDS011;62840;52.366;5.980;2023-11-21T04:39:52;13.80;;;3.93;;
69573;SDS011;62840;52.366;5.980;2023-11-21T04:42:18;11.77;;;4.05;;
69573;SDS011;62840;52.366;5.980;2023-11-21T04:44:44;10.18;;;4.28;;
69573;SDS011;62840;52.366;5.980;2023-11-21T04:47:09;11.53;;;4.07;;
69573;SDS011;62840;52.366;5.980;2023-11-21T04:49:35;10.07;;;3.58;;
69573;SDS011;62840;52.366;5.980;2023-11-21T04:52:01;12.57;;;4.20;;
69573;SDS011;62840;52.366;5.980;2023-11-21T04:54:27;8.85;;;3.40;;
69573;SDS011;62840;52.366;5.980;2023-11-21T04:56:55;10.60;;;3.60;;
69573;SDS011;62840;52.366;5.980;2023-11-21T04:59:21;9.30;;;3.83;;
69573;SDS011;62840;52.366;5.980;2023-11-21T05:01:47;11.68;;;3.90;;
69573;SDS011;62840;52.366;5.980;2023-11-21T05:04:12;12.33;;;4.27;;
69573;SDS011;62840;52.366;5.980;2023-11-21T05:06:38;9.10;;;3.45;;
69573;SDS011;62840;52.366;5.980;2023-11-21T05:09:04;13.23;;;3.90;;
69573;SDS011;62840;52.366;5.980;2023-11-21T05:11:30;11.80;;;3.97;;
69573;SDS011;62840;52.366;5.980;2023-11-21T05:13:58;10.90;;;3.70;;
69573;SDS011;62840;52.366;5.980;2023-11-21T05:16:25;12.68;;;3.85;;
69573;SDS011;62840;52.366;5.980;2023-11-21T05:18:51;11.65;;;3.78;;
69573;SDS011;62840;52.366;5.980;2023-11-21T05:21:17;8.02;;;3.60;;
69573;SDS011;62840;52.366;5.980;2023-11-21T05:23:42;13.32;;;4.57;;
69573;SDS011;62840;52.366;5.980;2023-11-21T05:26:08;11.57;;;4.10;;
69573;SDS011;62840;52.366;5.980;2023-11-21T05:28:34;11.37;;;3.83;;
69573;SDS011;62840;52.366;5.980;2023-11-21T05:31:02;10.40;;;3.50;;
69573;SDS011;62840;52.366;5.980;2023-11-21T05:33:28;11.80;;;3.47;;
69573;SDS011;62840;52.366;5.980;2023-11-21T05:35:54;9.70;;;3.88;;
69573;SDS011;62840;52.366;5.980;2023-11-21T05:38:20;9.18;;;3.92;;
69573;SDS011;62840;52.366;5.980;2023-11-21T05:40:45;9.48;;;3.55;;
69573;SDS011;62840;52.366;5.980;2023-11-21T05:43:11;9.60;;;3.78;;
69573;SDS011;62840;52.366;5.980;2023-11-21T05:45:37;10.73;;;3.83;;
69573;SDS011;62840;52.366;5.980;2023-11-21T05:48:05;10.68;;;4.03;;
69573;SDS011;62840;52.366;5.980;2023-11-21T05:50:31;12.95;;;3.95;;
69573;SDS011;62840;52.366;5.980;2023-11-21T05:52:57;10.10;;;3.33;;
69573;SDS011;62840;52.366;5.980;2023-11-21T05:55:23;10.32;;;4.40;;
69573;SDS011;62840;52.366;5.980;2023-11-21T05:57:49;10.98;;;3.70;;
69573;SDS011;62840;52.366;5.980;2023-11-21T06:00:15;11.37;;;3.90;;
69573;SDS011;62840;52.366;5.980;2023-11-21T06:02:41;11.15;;;4.65;;
69573;SDS011;62840;52.366;5.980;2023-11-21T06:05:10;10.45;;;4.40;;
69573;SDS011;62840;52.366;5.980;2023-11-21T06:07:36;10.95;;;4.30;;
69573;SDS011;62840;52.366;5.980;2023-11-21T06:10:03;13.45;;;4.68;;
69573;SDS011;62840;52.366;5.980;2023-11-21T06:12:30;10.02;;;4.25;;
69573;SDS011;62840;52.366;5.980;2023-11-21T06:14:56;11.93;;;5.00;;
69573;SDS011;62840;52.366;5.980;2023-11-21T06:17:22;13.65;;;3.90;;
69573;SDS011;62840;52.366;5.980;2023-11-21T06:19:48;12.05;;;4.30;;
69573;SDS011;62840;52.366;5.980;2023-11-21T06:22:16;9.83;;;4.27;;
69573;SDS011;62840;52.366;5.980;2023-11-21T06:24:42;12.55;;;4.40;;
69573;SDS011;62840;52.366;5.980;2023-11-21T06:27:08;9.70;;;3.85;;
69573;SDS011;62840;52.366;5.980;2023-11-21T06:29:34;9.65;;;4.05;;
69573;SDS011;62840;52.366;5.980;2023-11-21T06:31:59;10.63;;;4.05;;
69573;SDS011;62840;52.366;5.980;2023-11-21T06:34:25;12.60;;;4.63;;
69573;SDS011;62840;52.366;5.980;2023-11-21T06:36:51;10.63;;;4.28;;
69573;SDS011;62840;52.366;5.980;2023-11-21T06:39:19;10.13;;;4.15;;
69573;SDS011;62840;52.366;5.980;2023-11-21T06:41:45;10.95;;;4.15;;
69573;SDS011;62840;52.366;5.980;2023-11-21T06:44:11;10.17;;;4.00;;
69573;SDS011;62840;52.366;5.980;2023-11-21T06:46:36;13.63;;;4.25;;
69573;SDS011;62840;52.366;5.980;2023-11-21T06:49:02;11.90;;;4.20;;
69573;SDS011;62840;52.366;5.980;2023-11-21T06:51:28;11.38;;;4.50;;
69573;SDS011;62840;52.366;5.980;2023-11-21T06:53:54;11.03;;;4.60;;
69573;SDS011;62840;52.366;5.980;2023-11-21T06:56:22;10.85;;;4.38;;
69573;SDS011;62840;52.366;5.980;2023-11-21T06:58:49;10.65;;;4.68;;
69573;SDS011;62840;52.366;5.980;2023-11-21T07:01:15;13.07;;;4.70;;
69573;SDS011;62840;52.366;5.980;2023-11-21T07:03:40;12.20;;;4.67;;
69573;SDS011;62840;52.366;5.980;2023-11-21T07:06:07;12.68;;;5.40;;
69573;SDS011;62840;52.366;5.980;2023-11-21T07:08:33;11.27;;;4.57;;
69573;SDS011;62840;52.366;5.980;2023-11-21T07:10:59;12.50;;;5.07;;
69573;SDS011;62840;52.366;5.980;2023-11-21T07:13:28;16.70;;;5.05;;
69573;SDS011;62840;52.366;5.980;2023-11-21T07:15:53;14.30;;;5.03;;
69573;SDS011;62840;52.366;5.980;2023-11-21T07:18:19;11.67;;;4.40;;
69573;SDS011;62840;52.366;5.980;2023-11-21T07:20:45;12.38;;;4.82;;
69573;SDS011;62840;52.366;5.980;2023-11-21T07:23:11;11.27;;;4.90;;
69573;SDS011;62840;52.366;5.980;2023-11-21T07:25:37;14.15;;;5.25;;
69573;SDS011;62840;52.366;5.980;2023-11-21T07:28:03;14.55;;;5.13;;
69573;SDS011;62840;52.366;5.980;2023-11-21T07:30:31;12.18;;;5.22;;
69573;SDS011;62840;52.366;5.980;2023-11-21T07:32:57;13.27;;;5.57;;
69573;SDS011;62840;52.366;5.980;2023-11-21T07:35:23;13.45;;;5.20;;
69573;SDS011;62840;52.366;5.980;2023-11-21T07:37:49;14.40;;;5.70;;
69573;SDS011;62840;52.366;5.980;2023-11-21T07:40:15;10.47;;;5.10;;
69573;SDS011;62840;52.366;5.980;2023-11-21T07:42:41;13.65;;;5.35;;
69573;SDS011;62840;52.366;5.980;2023-11-21T07:45:08;16.20;;;5.43;;
69573;SDS011;62840;52.366;5.980;2023-11-21T07:47:37;16.80;;;6.13;;
69573;SDS011;62840;52.366;5.980;2023-11-21T07:50:03;16.85;;;5.75;;
69573;SDS011;62840;52.366;5.980;2023-11-21T07:52:30;16.70;;;5.88;;
69573;SDS011;62840;52.366;5.980;2023-11-21T07:54:56;19.05;;;6.45;;
69573;SDS011;62840;52.366;5.980;2023-11-21T07:57:21;15.10;;;5.93;;
69573;SDS011;62840;52.366;5.980;2023-11-21T07:59:47;19.05;;;6.35;;
69573;SDS011;62840;52.366;5.980;2023-11-21T08:02:13;15.10;;;6.13;;
69573;SDS011;62840;52.366;5.980;2023-11-21T08:04:41;15.65;;;6.13;;
69573;SDS011;62840;52.366;5.980;2023-11-21T08:07:07;15.10;;;6.00;;
69573;SDS011;62840;52.366;5.980;2023-11-21T08:09:33;15.85;;;6.35;;
69573;SDS011;62840;52.366;5.980;2023-11-21T08:11:58;17.02;;;6.13;;
69573;SDS011;62840;52.366;5.980;2023-11-21T08:14:24;16.92;;;6.15;;
69573;SDS011;62840;52.366;5.980;2023-11-21T08:16:50;16.10;;;6.13;;
69573;SDS011;62840;52.366;5.980;2023-11-21T08:19:16;15.25;;;5.75;;
69573;SDS011;62840;52.366;5.980;2023-11-21T08:21:44;15.50;;;6.53;;
69573;SDS011;62840;52.366;5.980;2023-11-21T08:24:10;17.67;;;6.80;;
69573;SDS011;62840;52.366;5.980;2023-11-21T08:26:36;16.07;;;6.53;;
69573;SDS011;62840;52.366;5.980;2023-11-21T08:29:02;17.08;;;6.40;;
69573;SDS011;62840;52.366;5.980;2023-11-21T08:31:28;17.27;;;7.30;;
69573;SDS011;62840;52.366;5.980;2023-11-21T08:33:54;15.93;;;6.60;;
69573;SDS011;62840;52.366;5.980;2023-11-21T08:36:20;17.58;;;6.57;;
69573;SDS011;62840;52.366;5.980;2023-11-21T08:38:48;16.40;;;7.10;;
69573;SDS011;62840;52.366;5.980;2023-11-21T08:41:14;15.27;;;6.20;;
69573;SDS011;62840;52.366;5.980;2023-11-21T08:43:39;14.32;;;6.35;;
69573;SDS011;62840;52.366;5.980;2023-11-21T08:46:05;20.37;;;6.63;;
69573;SDS011;62840;52.366;5.980;2023-11-21T08:48:31;16.35;;;6.82;;
69573;SDS011;62840;52.366;5.980;2023-11-21T08:50:57;15.32;;;6.95;;
69573;SDS011;62840;52.366;5.980;2023-11-21T08:53:23;15.23;;;6.37;;
69573;SDS011;62840;52.366;5.980;2023-11-21T08:55:51;20.60;;;6.85;;
69573;SDS011;62840;52.366;5.980;2023-11-21T08:58:17;15.67;;;7.07;;
69573;SDS011;62840;52.366;5.980;2023-11-21T09:00:43;16.65;;;7.13;;
69573;SDS011;62840;52.366;5.980;2023-11-21T09:03:09;17.48;;;6.63;;
69573;SDS011;62840;52.366;5.980;2023-11-21T09:05:37;15.60;;;6.47;;
69573;SDS011;62840;52.366;5.980;2023-11-21T09:08:03;15.43;;;6.75;;
69573;SDS011;62840;52.366;5.980;2023-11-21T09:10:29;16.15;;;6.88;;
69573;SDS011;62840;52.366;5.980;2023-11-21T09:12:57;15.57;;;6.50;;
69573;SDS011;62840;52.366;5.980;2023-11-21T09:15:23;16.45;;;5.85;;
69573;SDS011;62840;52.366;5.980;2023-11-21T09:17:49;14.93;;;6.10;;
69573;SDS011;62840;52.366;5.980;2023-11-21T09:20:14;16.65;;;6.32;;
69573;SDS011;62840;52.366;5.980;2023-11-21T09:22:40;16.42;;;6.25;;
69573;SDS011;62840;52.366;5.980;2023-11-21T09:25:07;15.60;;;5.87;;
69573;SDS011;62840;52.366;5.980;2023-11-21T09:27:34;13.98;;;5.40;;
69573;SDS011;62840;52.366;5.980;2023-11-21T09:30:02;11.65;;;5.05;;
69573;SDS011;62840;52.366;5.980;2023-11-21T09:32:29;12.00;;;5.03;;
69573;SDS011;62840;52.366;5.980;2023-11-21T09:34:55;16.75;;;4.78;;
69573;SDS011;62840;52.366;5.980;2023-11-21T09:37:21;11.90;;;4.60;;
69573;SDS011;62840;52.366;5.980;2023-11-21T09:39:46;11.18;;;4.72;;
69573;SDS011;62840;52.366;5.980;2023-11-21T09:42:13;13.63;;;4.70;;
69573;SDS011;62840;52.366;5.980;2023-11-21T09:44:45;11.18;;;4.50;;
69573;SDS011;62840;52.366;5.980;2023-11-21T09:47:25;12.63;;;4.55;;
69573;SDS011;62840;52.366;5.980;2023-11-21T09:49:51;11.95;;;4.10;;
69573;SDS011;62840;52.366;5.980;2023-11-21T09:52:22;10.15;;;4.45;;
69573;SDS011;62840;52.366;5.980;2023-11-21T09:54:51;12.27;;;4.47;;
69573;SDS011;62840;52.366;5.980;2023-11-21T09:57:19;10.77;;;4.22;;
69573;SDS011;62840;52.366;5.980;2023-11-21T09:59:45;11.55;;;4.22;;
69573;SDS011;62840;52.366;5.980;2023-11-21T10:02:16;13.85;;;5.45;;
69573;SDS011;62840;52.366;5.980;2023-11-21T10:04:45;12.88;;;4.65;;
69573;SDS011;62840;52.366;5.980;2023-11-21T10:07:12;11.67;;;4.73;;
69573;SDS011;62840;52.366;5.980;2023-11-21T10:09:42;13.50;;;5.22;;
69573;SDS011;62840;52.366;5.980;2023-11-21T10:12:09;12.25;;;5.05;;
69573;SDS011;62840;52.366;5.980;2023-11-21T10:14:40;12.23;;;4.47;;
69573;SDS011;62840;52.366;5.980;2023-11-21T10:17:07;12.48;;;5.30;;
69573;SDS011;62840;52.366;5.980;2023-11-21T10:19:37;13.53;;;5.23;;
69573;SDS011;62840;52.366;5.980;2023-11-21T10:22:07;12.63;;;4.35;;
69573;SDS011;62840;52.366;5.980;2023-11-21T10:24:33;12.00;;;4.93;;
69573;SDS011;62840;52.366;5.980;2023-11-21T10:26:59;13.43;;;5.13;;
69573;SDS011;62840;52.366;5.980;2023-11-21T10:29:28;14.23;;;5.57;;
69573;SDS011;62840;52.366;5.980;2023-11-21T10:31:54;12.68;;;4.97;;
69573;SDS011;62840;52.366;5.980;2023-11-21T10:34:20;13.63;;;5.82;;
69573;SDS011;62840;52.366;5.980;2023-11-21T10:36:46;12.40;;;5.30;;
69573;SDS011;62840;52.366;5.980;2023-11-21T10:39:16;13.48;;;4.88;;
69573;SDS011;62840;52.366;5.980;2023-11-21T10:41:43;12.52;;;5.40;;
69573;SDS011;62840;52.366;5.980;2023-11-21T10:44:13;14.90;;;5.82;;
69573;SDS011;62840;52.366;5.980;2023-11-21T10:46:39;12.47;;;5.60;;
69573;SDS011;62840;52.366;5.980;2023-11-21T10:49:05;10.70;;;5.07;;
69573;SDS011;62840;52.366;5.980;2023-11-21T10:51:31;12.73;;;4.55;;
69573;SDS011;62840;52.366;5.980;2023-11-21T10:53:57;11.40;;;5.40;;
69573;SDS011;62840;52.366;5.980;2023-11-21T10:56:27;11.93;;;5.20;;
69573;SDS011;62840;52.366;5.980;2023-11-21T10:58:53;13.07;;;5.07;;
69573;SDS011;62840;52.366;5.980;2023-11-21T11:01:19;12.27;;;5.30;;
69573;SDS011;62840;52.366;5.980;2023-11-21T11:03:49;14.20;;;5.97;;
69573;SDS011;62840;52.366;5.980;2023-11-21T11:06:17;13.63;;;5.73;;
69573;SDS011;62840;52.366;5.980;2023-11-21T11:08:43;10.13;;;4.80;;
69573;SDS011;62840;52.366;5.980;2023-11-21T11:11:09;12.50;;;4.95;;
69573;SDS011;62840;52.366;5.980;2023-11-21T11:13:38;10.60;;;4.60;;
69573;SDS011;62840;52.366;5.980;2023-11-21T11:16:08;13.60;;;5.07;;
69573;SDS011;62840;52.366;5.980;2023-11-21T11:18:34;12.05;;;4.82;;
69573;SDS011;62840;52.366;5.980;2023-11-21T11:21:01;12.60;;;5.75;;
69573;SDS011;62840;52.366;5.980;2023-11-21T11:23:45;12.85;;;5.15;;
69573;SDS011;62840;52.366;5.980;2023-11-21T11:26:31;13.30;;;5.17;;
69573;SDS011;62840;52.366;5.980;2023-11-21T11:29:14;14.25;;;5.63;;
69573;SDS011;62840;52.366;5.980;2023-11-21T11:32:00;12.95;;;5.60;;
69573;SDS011;62840;52.366;5.980;2023-11-21T11:34:43;12.68;;;5.35;;
69573;SDS011;62840;52.366;5.980;2023-11-21T11:37:19;13.82;;;5.47;;
69573;SDS011;62840;52.366;5.980;2023-11-21T11:39:46;11.83;;;5.27;;
69573;SDS011;62840;52.366;5.980;2023-11-21T11:42:14;13.10;;;5.63;;
69573;SDS011;62840;52.366;5.980;2023-11-21T11:44:48;11.43;;;4.93;;
69573;SDS011;62840;52.366;5.980;2023-11-21T11:47:28;13.02;;;5.53;;
69573;SDS011;62840;52.366;5.980;2023-11-21T11:50:00;12.20;;;4.75;;
69573;SDS011;62840;52.366;5.980;2023-11-21T11:52:32;13.03;;;5.27;;
69573;SDS011;62840;52.366;5.980;2023-11-21T11:55:05;12.57;;;5.00;;
69573;SDS011;62840;52.366;5.980;2023-11-21T11:57:33;11.50;;;4.80;;
69573;SDS011;62840;52.366;5.980;2023-11-21T12:00:16;11.40;;;5.15;;
69573;SDS011;62840;52.366;5.980;2023-11-21T12:02:44;13.52;;;4.65;;
69573;SDS011;62840;52.366;5.980;2023-11-21T12:05:13;9.53;;;3.67;;
69573;SDS011;62840;52.366;5.980;2023-11-21T12:07:48;10.73;;;3.95;;
69573;SDS011;62840;52.366;5.980;2023-11-21T12:10:17;9.10;;;3.10;;
69573;SDS011;62840;52.366;5.980;2023-11-21T12:12:46;7.10;;;2.83;;
69573;SDS011;62840;52.366;5.980;2023-11-21T12:15:16;7.63;;;2.47;;
69573;SDS011;62840;52.366;5.980;2023-11-21T12:17:43;5.83;;;2.37;;
69573;SDS011;62840;52.366;5.980;2023-11-21T12:20:13;7.45;;;2.63;;
69573;SDS011;62840;52.366;5.980;2023-11-21T12:22:43;9.85;;;3.17;;
69573;SDS011;62840;52.366;5.980;2023-11-21T12:25:11;10.00;;;3.42;;
69573;SDS011;62840;52.366;5.980;2023-11-21T12:27:36;11.20;;;3.57;;
69573;SDS011;62840;52.366;5.980;2023-11-21T12:30:02;12.00;;;4.03;;
69573;SDS011;62840;52.366;5.980;2023-11-21T12:32:32;12.73;;;4.43;;
69573;SDS011;62840;52.366;5.980;2023-11-21T12:34:58;11.77;;;4.20;;
69573;SDS011;62840;52.366;5.980;2023-11-21T12:37:24;13.45;;;5.20;;
69573;SDS011;62840;52.366;5.980;2023-11-21T12:39:50;15.63;;;5.15;;
69573;SDS011;62840;52.366;5.980;2023-11-21T12:42:16;12.70;;;5.10;;
69573;SDS011;62840;52.366;5.980;2023-11-21T12:44:42;15.77;;;5.50;;
69573;SDS011;62840;52.366;5.980;2023-11-21T12:47:11;12.55;;;4.97;;
69573;SDS011;62840;52.366;5.980;2023-11-21T12:49:44;15.13;;;5.10;;
69573;SDS011;62840;52.366;5.980;2023-11-21T12:52:09;14.27;;;4.93;;
69573;SDS011;62840;52.366;5.980;2023-11-21T12:54:35;13.38;;;5.25;;
69573;SDS011;62840;52.366;5.980;2023-11-21T12:57:01;15.23;;;5.57;;
69573;SDS011;62840;52.366;5.980;2023-11-21T12:59:28;12.70;;;5.07;;
69573;SDS011;62840;52.366;5.980;2023-11-21T13:01:54;15.67;;;5.80;;
69573;SDS011;62840;52.366;5.980;2023-11-21T13:04:19;15.23;;;5.22;;
69573;SDS011;62840;52.366;5.980;2023-11-21T13:06:48;13.43;;;4.85;;
69573;SDS011;62840;52.366;5.980;2023-11-21T13:09:13;14.40;;;5.10;;
69573;SDS011;62840;52.366;5.980;2023-11-21T13:11:39;13.90;;;5.15;;
69573;SDS011;62840;52.366;5.980;2023-11-21T13:14:05;15.20;;;5.57;;
69573;SDS011;62840;52.366;5.980;2023-11-21T13:16:31;13.98;;;5.35;;
69573;SDS011;62840;52.366;5.980;2023-11-21T13:18:57;11.70;;;4.30;;
69573;SDS011;62840;52.366;5.980;2023-11-21T13:21:23;11.10;;;4.55;;
69573;SDS011;62840;52.366;5.980;2023-11-21T13:23:51;12.27;;;4.57;;
69573;SDS011;62840;52.366;5.980;2023-11-21T13:26:17;11.75;;;4.80;;
69573;SDS011;62840;52.366;5.980;2023-11-21T13:28:43;12.53;;;4.97;;
69573;SDS011;62840;52.366;5.980;2023-11-21T13:31:08;11.65;;;4.28;;
69573;SDS011;62840;52.366;5.980;2023-11-21T13:33:34;12.70;;;5.20;;
69573;SDS011;62840;52.366;5.980;2023-11-21T13:36:00;11.82;;;4.55;;
69573;SDS011;62840;52.366;5.980;2023-11-21T13:38:26;12.90;;;5.05;;
69573;SDS011;62840;52.366;5.980;2023-11-21T13:40:55;11.27;;;4.67;;
69573;SDS011;62840;52.366;5.980;2023-11-21T13:43:21;11.85;;;4.70;;
69573;SDS011;62840;52.366;5.980;2023-11-21T13:45:49;12.25;;;4.68;;
69573;SDS011;62840;52.366;5.980;2023-11-21T13:48:15;10.77;;;4.45;;
69573;SDS011;62840;52.366;5.980;2023-11-21T13:50:41;11.97;;;5.13;;
69573;SDS011;62840;52.366;5.980;2023-11-21T13:53:08;10.55;;;4.60;;
69573;SDS011;62840;52.366;5.980;2023-11-21T13:55:33;11.60;;;4.55;;
69573;SDS011;62840;52.366;5.980;2023-11-21T13:58:02;11.40;;;4.30;;
69573;SDS011;62840;52.366;5.980;2023-11-21T14:00:28;9.88;;;4.88;;
69573;SDS011;62840;52.366;5.980;2023-11-21T14:02:53;9.85;;;4.55;;
69573;SDS011;62840;52.366;5.980;2023-11-21T14:05:19;9.17;;;4.57;;
69573;SDS011;62840;52.366;5.980;2023-11-21T14:07:45;10.98;;;4.85;;
69573;SDS011;62840;52.366;5.980;2023-11-21T14:10:13;9.95;;;4.75;;
69573;SDS011;62840;52.366;5.980;2023-11-21T14:12:38;9.90;;;4.57;;
69573;SDS011;62840;52.366;5.980;2023-11-21T14:15:07;10.77;;;4.40;;
69573;SDS011;62840;52.366;5.980;2023-11-21T14:17:34;12.82;;;4.95;;
69573;SDS011;62840;52.366;5.980;2023-11-21T14:20:00;11.50;;;4.67;;
69573;SDS011;62840;52.366;5.980;2023-11-21T14:22:25;8.75;;;4.45;;
69573;SDS011;62840;52.366;5.980;2023-11-21T14:24:51;10.13;;;4.40;;
69573;SDS011;62840;52.366;5.980;2023-11-21T14:27:17;10.00;;;4.45;;
69573;SDS011;62840;52.366;5.980;2023-11-21T14:29:43;9.20;;;4.03;;
69573;SDS011;62840;52.366;5.980;2023-11-21T14:32:11;8.30;;;4.03;;
69573;SDS011;62840;52.366;5.980;2023-11-21T14:34:37;11.27;;;4.03;;